sensor_id;sensor_type;location;lat;lon;timestamp;temperature;humidity
76104;HTU21D;64831;44.870;37.336;2023-02-23T00:00:28;4.52;65.17
76104;HTU21D;64831;44.870;37.336;2023-02-23T00:02:59;4.52;65.21
76104;HTU21D;64831;44.870;37.336;2023-02-23T00:05:30;4.52;65.23
76104;HTU21D;64831;44.870;37.336;2023-02-23T00:07:57;4.56;65.38
76104;HTU21D;64831;44.870;37.336;2023-02-23T00:10:24;4.58;65.33
76104;HTU21D;64831;44.870;37.336;2023-02-23T00:12:58;4.61;65.38
76104;HTU21D;64831;44.870;37.336;2023-02-23T00:15:26;4.64;65.44
76104;HTU21D;64831;44.870;37.336;2023-02-23T00:17:56;4.66;65.37
76104;HTU21D;64831;44.870;37.336;2023-02-23T00:20:22;4.65;65.41
76104;HTU21D;64831;44.870;37.336;2023-02-23T00:22:56;4.64;65.32
76104;HTU21D;64831;44.870;37.336;2023-02-23T00:25:23;4.63;65.57
76104;HTU21D;64831;44.870;37.336;2023-02-23T00:27:52;4.63;65.65
76104;HTU21D;64831;44.870;37.336;2023-02-23T00:30:19;4.64;65.80
76104;HTU21D;64831;44.870;37.336;2023-02-23T00:32:49;4.66;65.54
76104;HTU21D;64831;44.870;37.336;2023-02-23T00:35:17;4.67;65.84
76104;HTU21D;64831;44.870;37.336;2023-02-23T00:37:47;4.64;65.93
76104;HTU21D;64831;44.870;37.336;2023-02-23T00:40:17;4.59;65.78
76104;HTU21D;64831;44.870;37.336;2023-02-23T00:42:46;4.58;65.53
76104;HTU21D;64831;44.870;37.336;2023-02-23T00:45:14;4.56;65.46
76104;HTU21D;64831;44.870;37.336;2023-02-23T00:47:42;4.56;65.36
76104;HTU21D;64831;44.870;37.336;2023-02-23T00:50:14;4.57;65.11
76104;HTU21D;64831;44.870;37.336;2023-02-23T00:52:41;4.51;65.07
76104;HTU21D;64831;44.870;37.336;2023-02-23T00:55:12;4.46;65.11
76104;HTU21D;64831;44.870;37.336;2023-02-23T00:57:39;4.43;65.16
76104;HTU21D;64831;44.870;37.336;2023-02-23T01:00:08;4.42;65.18
76104;HTU21D;64831;44.870;37.336;2023-02-23T01:02:39;4.36;65.41
76104;HTU21D;64831;44.870;37.336;2023-02-23T01:05:08;4.29;65.53
76104;HTU21D;64831;44.870;37.336;2023-02-23T01:07:36;4.27;65.43
76104;HTU21D;64831;44.870;37.336;2023-02-23T01:10:02;4.22;65.13
76104;HTU21D;64831;44.870;37.336;2023-02-23T01:12:32;4.23;64.88
76104;HTU21D;64831;44.870;37.336;2023-02-23T01:14:58;4.23;64.69
76104;HTU21D;64831;44.870;37.336;2023-02-23T01:17:23;4.15;65.37
76104;HTU21D;64831;44.870;37.336;2023-02-23T01:19:49;4.17;65.74
76104;HTU21D;64831;44.870;37.336;2023-02-23T01:22:15;4.12;66.47
76104;HTU21D;64831;44.870;37.336;2023-02-23T01:24:41;4.15;65.81
76104;HTU21D;64831;44.870;37.336;2023-02-23T01:27:07;4.12;65.82
76104;HTU21D;64831;44.870;37.336;2023-02-23T01:29:33;4.06;65.59
76104;HTU21D;64831;44.870;37.336;2023-02-23T01:31:59;4.03;65.33
76104;HTU21D;64831;44.870;37.336;2023-02-23T01:34:25;4.00;64.98
76104;HTU21D;64831;44.870;37.336;2023-02-23T01:36:51;3.97;64.63
76104;HTU21D;64831;44.870;37.336;2023-02-23T01:39:19;3.99;64.56
76104;HTU21D;64831;44.870;37.336;2023-02-23T01:41:45;3.97;64.06
76104;HTU21D;64831;44.870;37.336;2023-02-23T01:46:42;3.90;62.07
76104;HTU21D;64831;44.870;37.336;2023-02-23T01:49:14;3.85;61.30
76104;HTU21D;64831;44.870;37.336;2023-02-23T01:52:03;3.73;60.15
76104;HTU21D;64831;44.870;37.336;2023-02-23T01:54:32;3.71;60.23
76104;HTU21D;64831;44.870;37.336;2023-02-23T01:57:02;3.71;60.73
76104;HTU21D;64831;44.870;37.336;2023-02-23T01:59:39;3.61;59.00
76104;HTU21D;64831;44.870;37.336;2023-02-23T02:02:06;3.58;59.73
76104;HTU21D;64831;44.870;37.336;2023-02-23T02:04:34;3.57;60.57
76104;HTU21D;64831;44.870;37.336;2023-02-23T02:07:21;3.61;61.09
76104;HTU21D;64831;44.870;37.336;2023-02-23T02:09:52;3.55;61.01
76104;HTU21D;64831;44.870;37.336;2023-02-23T02:12:44;3.54;61.38
76104;HTU21D;64831;44.870;37.336;2023-02-23T02:15:12;3.52;61.49
76104;HTU21D;64831;44.870;37.336;2023-02-23T02:17:51;3.47;61.67
76104;HTU21D;64831;44.870;37.336;2023-02-23T02:26:27;3.41;62.41
76104;HTU21D;64831;44.870;37.336;2023-02-23T02:37:32;3.36;63.23
76104;HTU21D;64831;44.870;37.336;2023-02-23T02:42:59;3.28;63.19
76104;HTU21D;64831;44.870;37.336;2023-02-23T02:45:54;3.26;63.12
76104;HTU21D;64831;44.870;37.336;2023-02-23T02:53:56;3.21;62.92
76104;HTU21D;64831;44.870;37.336;2023-02-23T02:56:24;3.04;62.21
76104;HTU21D;64831;44.870;37.336;2023-02-23T02:58:53;3.01;62.31
76104;HTU21D;64831;44.870;37.336;2023-02-23T03:01:20;3.00;62.43
76104;HTU21D;64831;44.870;37.336;2023-02-23T03:04:24;2.94;61.72
76104;HTU21D;64831;44.870;37.336;2023-02-23T03:08:01;2.91;61.84
76104;HTU21D;64831;44.870;37.336;2023-02-23T03:16:23;2.94;61.57
76104;HTU21D;64831;44.870;37.336;2023-02-23T03:19:30;2.94;61.45
76104;HTU21D;64831;44.870;37.336;2023-02-23T03:22:29;2.89;60.98
76104;HTU21D;64831;44.870;37.336;2023-02-23T03:25:22;2.85;60.73
76104;HTU21D;64831;44.870;37.336;2023-02-23T03:28:21;2.78;59.95
76104;HTU21D;64831;44.870;37.336;2023-02-23T03:31:15;2.71;59.90
76104;HTU21D;64831;44.870;37.336;2023-02-23T03:40:25;2.52;59.19
76104;HTU21D;64831;44.870;37.336;2023-02-23T03:43:15;2.45;58.96
76104;HTU21D;64831;44.870;37.336;2023-02-23T03:46:02;2.42;59.20
76104;HTU21D;64831;44.870;37.336;2023-02-23T03:48:49;2.44;59.77
76104;HTU21D;64831;44.870;37.336;2023-02-23T03:51:37;2.43;59.54
76104;HTU21D;64831;44.870;37.336;2023-02-23T03:54:57;2.44;59.13
76104;HTU21D;64831;44.870;37.336;2023-02-23T03:57:34;2.43;57.70
76104;HTU21D;64831;44.870;37.336;2023-02-23T04:00:24;2.40;57.64
76104;HTU21D;64831;44.870;37.336;2023-02-23T04:03:12;2.32;56.25
76104;HTU21D;64831;44.870;37.336;2023-02-23T04:05:58;2.30;55.58
76104;HTU21D;64831;44.870;37.336;2023-02-23T04:08:44;2.29;56.08
76104;HTU21D;64831;44.870;37.336;2023-02-23T04:14:42;2.15;55.39
76104;HTU21D;64831;44.870;37.336;2023-02-23T04:17:11;2.11;55.81
76104;HTU21D;64831;44.870;37.336;2023-02-23T04:19:37;2.07;55.87
76104;HTU21D;64831;44.870;37.336;2023-02-23T04:22:03;2.00;55.90
76104;HTU21D;64831;44.870;37.336;2023-02-23T04:24:29;1.98;56.57
76104;HTU21D;64831;44.870;37.336;2023-02-23T04:26:55;1.99;57.13
76104;HTU21D;64831;44.870;37.336;2023-02-23T04:29:21;1.98;57.15
76104;HTU21D;64831;44.870;37.336;2023-02-23T04:31:46;1.98;57.33
76104;HTU21D;64831;44.870;37.336;2023-02-23T04:34:13;2.05;57.53
76104;HTU21D;64831;44.870;37.336;2023-02-23T04:36:39;2.10;57.74
76104;HTU21D;64831;44.870;37.336;2023-02-23T04:39:05;2.20;57.96
76104;HTU21D;64831;44.870;37.336;2023-02-23T04:41:31;2.35;58.20
76104;HTU21D;64831;44.870;37.336;2023-02-23T04:43:56;2.64;58.56
76104;HTU21D;64831;44.870;37.336;2023-02-23T04:46:23;3.12;58.36
76104;HTU21D;64831;44.870;37.336;2023-02-23T04:48:49;3.64;58.38
76104;HTU21D;64831;44.870;37.336;2023-02-23T04:51:14;4.22;57.93
76104;HTU21D;64831;44.870;37.336;2023-02-23T04:53:40;4.77;56.91
76104;HTU21D;64831;44.870;37.336;2023-02-23T04:56:06;5.06;55.92
76104;HTU21D;64831;44.870;37.336;2023-02-23T04:58:32;5.32;56.55
76104;HTU21D;64831;44.870;37.336;2023-02-23T05:01:07;5.87;56.32
76104;HTU21D;64831;44.870;37.336;2023-02-23T05:03:34;6.42;55.35
76104;HTU21D;64831;44.870;37.336;2023-02-23T05:06:01;6.86;52.56
76104;HTU21D;64831;44.870;37.336;2023-02-23T05:08:27;6.94;51.30
76104;HTU21D;64831;44.870;37.336;2023-02-23T05:10:52;6.84;50.47
76104;HTU21D;64831;44.870;37.336;2023-02-23T05:13:18;6.94;51.50
76104;HTU21D;64831;44.870;37.336;2023-02-23T05:15:45;6.93;51.08
76104;HTU21D;64831;44.870;37.336;2023-02-23T05:18:11;6.71;50.19
76104;HTU21D;64831;44.870;37.336;2023-02-23T05:20:36;6.39;50.23
76104;HTU21D;64831;44.870;37.336;2023-02-23T05:23:02;6.04;50.74
76104;HTU21D;64831;44.870;37.336;2023-02-23T05:25:28;5.70;50.97
76104;HTU21D;64831;44.870;37.336;2023-02-23T05:27:54;5.43;51.66
76104;HTU21D;64831;44.870;37.336;2023-02-23T05:30:20;5.20;52.39
76104;HTU21D;64831;44.870;37.336;2023-02-23T05:32:46;4.93;52.42
76104;HTU21D;64831;44.870;37.336;2023-02-23T05:35:12;4.79;53.27
76104;HTU21D;64831;44.870;37.336;2023-02-23T05:37:38;4.77;53.65
76104;HTU21D;64831;44.870;37.336;2023-02-23T05:40:04;4.75;54.30
76104;HTU21D;64831;44.870;37.336;2023-02-23T05:42:30;4.81;54.55
76104;HTU21D;64831;44.870;37.336;2023-02-23T05:44:56;4.81;54.17
76104;HTU21D;64831;44.870;37.336;2023-02-23T05:47:22;4.94;54.84
76104;HTU21D;64831;44.870;37.336;2023-02-23T05:49:48;4.93;54.33
76104;HTU21D;64831;44.870;37.336;2023-02-23T05:52:14;4.73;55.26
76104;HTU21D;64831;44.870;37.336;2023-02-23T05:54:40;4.43;56.48
76104;HTU21D;64831;44.870;37.336;2023-02-23T05:57:06;4.05;57.89
76104;HTU21D;64831;44.870;37.336;2023-02-23T05:59:33;3.74;58.93
76104;HTU21D;64831;44.870;37.336;2023-02-23T06:01:59;3.44;59.85
76104;HTU21D;64831;44.870;37.336;2023-02-23T06:04:24;3.16;60.28
76104;HTU21D;64831;44.870;37.336;2023-02-23T06:06:50;2.94;61.34
76104;HTU21D;64831;44.870;37.336;2023-02-23T06:09:16;2.64;62.29
76104;HTU21D;64831;44.870;37.336;2023-02-23T06:11:42;2.46;62.84
76104;HTU21D;64831;44.870;37.336;2023-02-23T06:14:09;2.32;63.47
76104;HTU21D;64831;44.870;37.336;2023-02-23T06:16:34;2.23;63.99
76104;HTU21D;64831;44.870;37.336;2023-02-23T06:19:00;2.25;64.73
76104;HTU21D;64831;44.870;37.336;2023-02-23T06:21:26;2.28;64.68
76104;HTU21D;64831;44.870;37.336;2023-02-23T06:23:52;2.30;64.69
76104;HTU21D;64831;44.870;37.336;2023-02-23T06:26:18;2.29;64.64
76104;HTU21D;64831;44.870;37.336;2023-02-23T06:28:45;2.26;64.41
76104;HTU21D;64831;44.870;37.336;2023-02-23T06:31:10;2.26;64.59
76104;HTU21D;64831;44.870;37.336;2023-02-23T06:33:36;2.29;64.64
76104;HTU21D;64831;44.870;37.336;2023-02-23T06:36:02;2.39;64.47
76104;HTU21D;64831;44.870;37.336;2023-02-23T06:38:28;2.45;63.83
76104;HTU21D;64831;44.870;37.336;2023-02-23T06:40:54;2.41;63.50
76104;HTU21D;64831;44.870;37.336;2023-02-23T06:43:20;2.45;63.19
76104;HTU21D;64831;44.870;37.336;2023-02-23T06:45:46;2.37;63.41
76104;HTU21D;64831;44.870;37.336;2023-02-23T06:48:12;2.44;63.21
76104;HTU21D;64831;44.870;37.336;2023-02-23T06:50:38;2.39;62.67
76104;HTU21D;64831;44.870;37.336;2023-02-23T06:53:03;2.23;63.19
76104;HTU21D;64831;44.870;37.336;2023-02-23T06:55:29;2.23;62.88
76104;HTU21D;64831;44.870;37.336;2023-02-23T06:57:55;2.20;63.60
76104;HTU21D;64831;44.870;37.336;2023-02-23T07:00:22;2.28;63.41
76104;HTU21D;64831;44.870;37.336;2023-02-23T07:02:48;2.21;62.92
76104;HTU21D;64831;44.870;37.336;2023-02-23T07:05:14;2.01;63.14
76104;HTU21D;64831;44.870;37.336;2023-02-23T07:07:40;2.02;63.48
76104;HTU21D;64831;44.870;37.336;2023-02-23T07:10:06;2.03;63.40
76104;HTU21D;64831;44.870;37.336;2023-02-23T07:12:32;1.95;62.77
76104;HTU21D;64831;44.870;37.336;2023-02-23T07:14:58;1.83;62.86
76104;HTU21D;64831;44.870;37.336;2023-02-23T07:17:24;1.75;63.27
76104;HTU21D;64831;44.870;37.336;2023-02-23T07:19:50;1.68;63.59
76104;HTU21D;64831;44.870;37.336;2023-02-23T07:22:15;1.67;63.46
76104;HTU21D;64831;44.870;37.336;2023-02-23T07:24:41;1.66;63.45
76104;HTU21D;64831;44.870;37.336;2023-02-23T07:27:07;1.73;63.44
76104;HTU21D;64831;44.870;37.336;2023-02-23T07:29:33;1.75;63.13
76104;HTU21D;64831;44.870;37.336;2023-02-23T07:31:59;1.75;63.00
76104;HTU21D;64831;44.870;37.336;2023-02-23T07:34:25;1.80;62.88
76104;HTU21D;64831;44.870;37.336;2023-02-23T07:36:51;1.85;62.78
76104;HTU21D;64831;44.870;37.336;2023-02-23T07:39:17;1.85;62.33
76104;HTU21D;64831;44.870;37.336;2023-02-23T07:41:43;1.85;62.49
76104;HTU21D;64831;44.870;37.336;2023-02-23T07:44:17;1.93;62.45
76104;HTU21D;64831;44.870;37.336;2023-02-23T07:46:43;1.99;62.37
76104;HTU21D;64831;44.870;37.336;2023-02-23T07:49:11;1.96;61.54
76104;HTU21D;64831;44.870;37.336;2023-02-23T07:51:40;1.90;61.59
76104;HTU21D;64831;44.870;37.336;2023-02-23T07:54:06;1.95;61.81
76104;HTU21D;64831;44.870;37.336;2023-02-23T07:56:32;1.95;61.61
76104;HTU21D;64831;44.870;37.336;2023-02-23T07:58:58;1.98;61.71
76104;HTU21D;64831;44.870;37.336;2023-02-23T08:01:24;2.14;61.57
76104;HTU21D;64831;44.870;37.336;2023-02-23T08:03:50;2.28;61.28
76104;HTU21D;64831;44.870;37.336;2023-02-23T08:06:17;2.27;60.28
76104;HTU21D;64831;44.870;37.336;2023-02-23T08:08:43;2.38;60.66
76104;HTU21D;64831;44.870;37.336;2023-02-23T08:11:09;2.42;60.49
76104;HTU21D;64831;44.870;37.336;2023-02-23T08:13:37;2.42;60.17
76104;HTU21D;64831;44.870;37.336;2023-02-23T08:16:06;2.46;60.51
76104;HTU21D;64831;44.870;37.336;2023-02-23T08:18:32;2.42;60.61
76104;HTU21D;64831;44.870;37.336;2023-02-23T08:20:59;2.28;61.14
76104;HTU21D;64831;44.870;37.336;2023-02-23T08:23:27;2.26;61.23
76104;HTU21D;64831;44.870;37.336;2023-02-23T08:25:53;2.21;61.67
76104;HTU21D;64831;44.870;37.336;2023-02-23T08:28:19;2.07;62.16
76104;HTU21D;64831;44.870;37.336;2023-02-23T08:30:45;2.13;62.09
76104;HTU21D;64831;44.870;37.336;2023-02-23T08:33:11;2.20;61.47
76104;HTU21D;64831;44.870;37.336;2023-02-23T08:35:37;2.35;61.07
76104;HTU21D;64831;44.870;37.336;2023-02-23T08:38:03;2.67;61.60
76104;HTU21D;64831;44.870;37.336;2023-02-23T08:40:29;3.30;60.77
76104;HTU21D;64831;44.870;37.336;2023-02-23T08:42:55;3.56;59.41
76104;HTU21D;64831;44.870;37.336;2023-02-23T08:45:21;3.70;59.61
76104;HTU21D;64831;44.870;37.336;2023-02-23T08:47:46;3.79;58.63
76104;HTU21D;64831;44.870;37.336;2023-02-23T08:50:13;3.53;56.60
76104;HTU21D;64831;44.870;37.336;2023-02-23T08:52:39;3.14;56.60
76104;HTU21D;64831;44.870;37.336;2023-02-23T08:55:06;3.04;57.48
76104;HTU21D;64831;44.870;37.336;2023-02-23T08:57:33;3.20;57.69
76104;HTU21D;64831;44.870;37.336;2023-02-23T08:59:59;3.76;59.57
76104;HTU21D;64831;44.870;37.336;2023-02-23T09:02:26;4.54;59.12
76104;HTU21D;64831;44.870;37.336;2023-02-23T09:04:52;5.15;54.67
76104;HTU21D;64831;44.870;37.336;2023-02-23T09:07:20;5.25;53.27
76104;HTU21D;64831;44.870;37.336;2023-02-23T09:09:57;5.46;52.49
76104;HTU21D;64831;44.870;37.336;2023-02-23T09:12:23;5.90;52.74
76104;HTU21D;64831;44.870;37.336;2023-02-23T09:14:49;6.30;51.95
76104;HTU21D;64831;44.870;37.336;2023-02-23T09:17:19;6.79;50.70
76104;HTU21D;64831;44.870;37.336;2023-02-23T09:19:44;7.19;49.79
76104;HTU21D;64831;44.870;37.336;2023-02-23T09:22:10;7.67;48.99
76104;HTU21D;64831;44.870;37.336;2023-02-23T09:24:36;8.08;48.20
76104;HTU21D;64831;44.870;37.336;2023-02-23T09:27:05;8.33;46.62
76104;HTU21D;64831;44.870;37.336;2023-02-23T09:29:37;8.19;44.72
76104;HTU21D;64831;44.870;37.336;2023-02-23T09:32:07;8.14;44.88
76104;HTU21D;64831;44.870;37.336;2023-02-23T09:34:33;8.20;43.16
76104;HTU21D;64831;44.870;37.336;2023-02-23T09:37:02;8.37;43.58
76104;HTU21D;64831;44.870;37.336;2023-02-23T09:39:28;8.61;44.03
76104;HTU21D;64831;44.870;37.336;2023-02-23T09:45:11;8.50;41.26
76104;HTU21D;64831;44.870;37.336;2023-02-23T09:50:30;8.56;41.84
76104;HTU21D;64831;44.870;37.336;2023-02-23T09:55:43;8.82;41.67
76104;HTU21D;64831;44.870;37.336;2023-02-23T09:58:24;8.88;40.36
76104;HTU21D;64831;44.870;37.336;2023-02-23T10:06:22;8.61;39.30
76104;HTU21D;64831;44.870;37.336;2023-02-23T10:11:50;8.02;38.52
76104;HTU21D;64831;44.870;37.336;2023-02-23T10:20:52;6.83;41.18
76104;HTU21D;64831;44.870;37.336;2023-02-23T10:23:03;7.08;41.01
76104;HTU21D;64831;44.870;37.336;2023-02-23T10:25:34;7.20;40.99
76104;HTU21D;64831;44.870;37.336;2023-02-23T10:28:01;7.29;40.17
76104;HTU21D;64831;44.870;37.336;2023-02-23T10:30:31;7.19;39.19
76104;HTU21D;64831;44.870;37.336;2023-02-23T10:33:12;7.04;39.32
76104;HTU21D;64831;44.870;37.336;2023-02-23T10:35:41;7.03;39.87
76104;HTU21D;64831;44.870;37.336;2023-02-23T10:38:12;6.84;39.81
76104;HTU21D;64831;44.870;37.336;2023-02-23T10:40:40;6.58;40.07
76104;HTU21D;64831;44.870;37.336;2023-02-23T10:43:06;6.49;40.57
76104;HTU21D;64831;44.870;37.336;2023-02-23T10:45:40;6.69;41.52
76104;HTU21D;64831;44.870;37.336;2023-02-23T10:48:07;6.99;40.34
76104;HTU21D;64831;44.870;37.336;2023-02-23T10:50:36;7.07;40.85
76104;HTU21D;64831;44.870;37.336;2023-02-23T10:53:13;6.69;40.62
76104;HTU21D;64831;44.870;37.336;2023-02-23T10:55:45;6.24;41.25
76104;HTU21D;64831;44.870;37.336;2023-02-23T10:58:15;5.94;42.25
76104;HTU21D;64831;44.870;37.336;2023-02-23T11:01:03;5.92;43.00
76104;HTU21D;64831;44.870;37.336;2023-02-23T11:03:44;6.04;43.46
76104;HTU21D;64831;44.870;37.336;2023-02-23T11:06:30;6.27;42.80
76104;HTU21D;64831;44.870;37.336;2023-02-23T11:08:57;6.37;42.31
76104;HTU21D;64831;44.870;37.336;2023-02-23T11:11:25;6.27;41.55
76104;HTU21D;64831;44.870;37.336;2023-02-23T11:13:54;6.04;41.59
76104;HTU21D;64831;44.870;37.336;2023-02-23T11:16:37;5.98;41.56
76104;HTU21D;64831;44.870;37.336;2023-02-23T11:19:05;5.66;41.72
76104;HTU21D;64831;44.870;37.336;2023-02-23T11:21:36;5.61;42.60
76104;HTU21D;64831;44.870;37.336;2023-02-23T11:24:27;5.63;42.61
76104;HTU21D;64831;44.870;37.336;2023-02-23T11:26:58;5.62;42.25
76104;HTU21D;64831;44.870;37.336;2023-02-23T11:29:41;5.50;42.14
76104;HTU21D;64831;44.870;37.336;2023-02-23T11:32:16;5.18;41.58
76104;HTU21D;64831;44.870;37.336;2023-02-23T11:34:44;5.16;42.51
76104;HTU21D;64831;44.870;37.336;2023-02-23T11:42:21;4.74;42.45
76104;HTU21D;64831;44.870;37.336;2023-02-23T11:45:16;4.68;42.79
76104;HTU21D;64831;44.870;37.336;2023-02-23T11:47:50;4.51;43.29
76104;HTU21D;64831;44.870;37.336;2023-02-23T11:52:55;4.52;43.73
76104;HTU21D;64831;44.870;37.336;2023-02-23T11:55:24;4.54;43.67
76104;HTU21D;64831;44.870;37.336;2023-02-23T11:57:51;4.58;43.74
76104;HTU21D;64831;44.870;37.336;2023-02-23T12:00:27;4.56;43.95
76104;HTU21D;64831;44.870;37.336;2023-02-23T12:02:58;4.59;44.21
76104;HTU21D;64831;44.870;37.336;2023-02-23T12:05:27;4.53;44.29
76104;HTU21D;64831;44.870;37.336;2023-02-23T12:10:31;4.62;43.61
76104;HTU21D;64831;44.870;37.336;2023-02-23T12:13:04;4.52;42.96
76104;HTU21D;64831;44.870;37.336;2023-02-23T12:16:04;4.38;43.32
76104;HTU21D;64831;44.870;37.336;2023-02-23T12:18:36;4.15;43.59
76104;HTU21D;64831;44.870;37.336;2023-02-23T12:21:40;3.99;42.96
76104;HTU21D;64831;44.870;37.336;2023-02-23T12:26:42;3.85;43.59
76104;HTU21D;64831;44.870;37.336;2023-02-23T12:29:19;3.78;43.09
76104;HTU21D;64831;44.870;37.336;2023-02-23T12:32:00;3.83;42.29
76104;HTU21D;64831;44.870;37.336;2023-02-23T12:34:55;3.63;41.90
76104;HTU21D;64831;44.870;37.336;2023-02-23T12:40:15;3.73;43.10
76104;HTU21D;64831;44.870;37.336;2023-02-23T12:42:48;3.80;43.45
76104;HTU21D;64831;44.870;37.336;2023-02-23T12:45:48;3.87;42.92
76104;HTU21D;64831;44.870;37.336;2023-02-23T12:51:00;3.72;41.46
76104;HTU21D;64831;44.870;37.336;2023-02-23T12:53:39;3.53;41.79
76104;HTU21D;64831;44.870;37.336;2023-02-23T12:59:34;3.44;42.66
76104;HTU21D;64831;44.870;37.336;2023-02-23T13:04:35;3.38;42.59
76104;HTU21D;64831;44.870;37.336;2023-02-23T13:07:32;3.34;42.54
76104;HTU21D;64831;44.870;37.336;2023-02-23T13:15:53;2.95;43.16
76104;HTU21D;64831;44.870;37.336;2023-02-23T13:18:31;2.87;42.88
76104;HTU21D;64831;44.870;37.336;2023-02-23T13:21:28;2.86;43.29
76104;HTU21D;64831;44.870;37.336;2023-02-23T13:24:09;2.75;42.86
76104;HTU21D;64831;44.870;37.336;2023-02-23T13:27:00;2.65;42.74
76104;HTU21D;64831;44.870;37.336;2023-02-23T13:29:37;2.55;42.89
76104;HTU21D;64831;44.870;37.336;2023-02-23T13:32:11;2.46;43.39
76104;HTU21D;64831;44.870;37.336;2023-02-23T13:35:17;2.21;43.26
76104;HTU21D;64831;44.870;37.336;2023-02-23T13:37:54;2.21;43.97
76104;HTU21D;64831;44.870;37.336;2023-02-23T13:43:04;2.08;44.38
76104;HTU21D;64831;44.870;37.336;2023-02-23T13:45:55;2.01;44.57
76104;HTU21D;64831;44.870;37.336;2023-02-23T13:51:51;1.78;44.87
76104;HTU21D;64831;44.870;37.336;2023-02-23T13:54:31;1.58;45.29
76104;HTU21D;64831;44.870;37.336;2023-02-23T13:57:11;1.39;45.70
76104;HTU21D;64831;44.870;37.336;2023-02-23T13:59:41;1.32;45.86
76104;HTU21D;64831;44.870;37.336;2023-02-23T14:02:34;1.21;46.38
76104;HTU21D;64831;44.870;37.336;2023-02-23T14:07:37;1.25;46.78
76104;HTU21D;64831;44.870;37.336;2023-02-23T14:10:18;1.20;47.24
76104;HTU21D;64831;44.870;37.336;2023-02-23T14:18:02;0.95;47.57
76104;HTU21D;64831;44.870;37.336;2023-02-23T14:20:43;0.89;47.86
76104;HTU21D;64831;44.870;37.336;2023-02-23T14:41:24;0.32;49.57
76104;HTU21D;64831;44.870;37.336;2023-02-23T14:46:32;0.19;49.48
76104;HTU21D;64831;44.870;37.336;2023-02-23T14:49:06;0.08;49.77
76104;HTU21D;64831;44.870;37.336;2023-02-23T14:51:50;-0.02;50.17
76104;HTU21D;64831;44.870;37.336;2023-02-23T14:54:34;-0.11;50.59
76104;HTU21D;64831;44.870;37.336;2023-02-23T14:57:04;-0.19;50.71
76104;HTU21D;64831;44.870;37.336;2023-02-23T14:59:38;-0.26;50.92
76104;HTU21D;64831;44.870;37.336;2023-02-23T15:02:20;-0.32;50.91
76104;HTU21D;64831;44.870;37.336;2023-02-23T15:04:46;-0.42;51.42
76104;HTU21D;64831;44.870;37.336;2023-02-23T15:07:31;-0.47;51.33
76104;HTU21D;64831;44.870;37.336;2023-02-23T15:09:59;-0.54;51.52
76104;HTU21D;64831;44.870;37.336;2023-02-23T15:12:34;-0.59;51.46
76104;HTU21D;64831;44.870;37.336;2023-02-23T15:15:02;-0.64;51.28
76104;HTU21D;64831;44.870;37.336;2023-02-23T15:17:31;-0.74;51.28
76104;HTU21D;64831;44.870;37.336;2023-02-23T15:20:04;-0.82;51.45
76104;HTU21D;64831;44.870;37.336;2023-02-23T15:22:33;-0.89;51.41
76104;HTU21D;64831;44.870;37.336;2023-02-23T15:25:05;-0.99;51.95
76104;HTU21D;64831;44.870;37.336;2023-02-23T15:27:41;-1.06;52.62
76104;HTU21D;64831;44.870;37.336;2023-02-23T15:30:28;-1.05;52.41
76104;HTU21D;64831;44.870;37.336;2023-02-23T15:33:03;-1.09;52.87
76104;HTU21D;64831;44.870;37.336;2023-02-23T15:35:32;-1.11;52.99
76104;HTU21D;64831;44.870;37.336;2023-02-23T15:38:00;-1.13;52.78
76104;HTU21D;64831;44.870;37.336;2023-02-23T15:40:27;-1.18;52.72
76104;HTU21D;64831;44.870;37.336;2023-02-23T15:42:56;-1.28;52.88
76104;HTU21D;64831;44.870;37.336;2023-02-23T15:45:36;-1.41;53.84
76104;HTU21D;64831;44.870;37.336;2023-02-23T15:48:14;-1.55;54.62
76104;HTU21D;64831;44.870;37.336;2023-02-23T15:50:45;-1.61;54.48
76104;HTU21D;64831;44.870;37.336;2023-02-23T15:53:37;-1.65;54.52
76104;HTU21D;64831;44.870;37.336;2023-02-23T15:56:13;-1.71;54.55
76104;HTU21D;64831;44.870;37.336;2023-02-23T15:58:47;-1.78;54.89
76104;HTU21D;64831;44.870;37.336;2023-02-23T16:01:21;-1.84;54.73
76104;HTU21D;64831;44.870;37.336;2023-02-23T16:04:17;-1.89;55.87
76104;HTU21D;64831;44.870;37.336;2023-02-23T16:06:52;-1.89;55.53
76104;HTU21D;64831;44.870;37.336;2023-02-23T16:12:00;-1.97;55.84
76104;HTU21D;64831;44.870;37.336;2023-02-23T16:14:45;-1.99;56.60
76104;HTU21D;64831;44.870;37.336;2023-02-23T16:19:49;-2.04;56.78
76104;HTU21D;64831;44.870;37.336;2023-02-23T16:22:20;-2.03;56.44
76104;HTU21D;64831;44.870;37.336;2023-02-23T16:25:14;-2.10;56.49
76104;HTU21D;64831;44.870;37.336;2023-02-23T16:27:42;-2.09;56.07
76104;HTU21D;64831;44.870;37.336;2023-02-23T16:30:19;-2.16;56.28
76104;HTU21D;64831;44.870;37.336;2023-02-23T16:33:01;-2.20;56.28
76104;HTU21D;64831;44.870;37.336;2023-02-23T16:35:35;-2.23;56.87
76104;HTU21D;64831;44.870;37.336;2023-02-23T16:38:03;-2.28;57.46
76104;HTU21D;64831;44.870;37.336;2023-02-23T16:40:38;-2.30;57.51
76104;HTU21D;64831;44.870;37.336;2023-02-23T16:43:04;-2.32;57.47
76104;HTU21D;64831;44.870;37.336;2023-02-23T16:45:30;-2.34;57.29
76104;HTU21D;64831;44.870;37.336;2023-02-23T16:47:56;-2.41;57.89
76104;HTU21D;64831;44.870;37.336;2023-02-23T16:50:27;-2.47;58.54
76104;HTU21D;64831;44.870;37.336;2023-02-23T16:52:53;-2.51;58.03
76104;HTU21D;64831;44.870;37.336;2023-02-23T16:55:24;-2.57;58.78
76104;HTU21D;64831;44.870;37.336;2023-02-23T16:57:58;-2.59;58.70
76104;HTU21D;64831;44.870;37.336;2023-02-23T17:00:28;-2.64;59.59
76104;HTU21D;64831;44.870;37.336;2023-02-23T17:02:55;-2.61;59.44
76104;HTU21D;64831;44.870;37.336;2023-02-23T17:05:23;-2.59;58.69
76104;HTU21D;64831;44.870;37.336;2023-02-23T17:07:50;-2.61;58.80
76104;HTU21D;64831;44.870;37.336;2023-02-23T17:10:25;-2.64;59.72
76104;HTU21D;64831;44.870;37.336;2023-02-23T17:12:53;-2.65;59.98
76104;HTU21D;64831;44.870;37.336;2023-02-23T17:15:20;-2.64;59.86
76104;HTU21D;64831;44.870;37.336;2023-02-23T17:17:47;-2.65;60.17
76104;HTU21D;64831;44.870;37.336;2023-02-23T17:20:13;-2.68;60.53
76104;HTU21D;64831;44.870;37.336;2023-02-23T17:22:44;-2.67;59.92
76104;HTU21D;64831;44.870;37.336;2023-02-23T17:25:10;-2.67;60.34
76104;HTU21D;64831;44.870;37.336;2023-02-23T17:27:36;-2.71;60.76
76104;HTU21D;64831;44.870;37.336;2023-02-23T17:30:04;-2.71;60.22
76104;HTU21D;64831;44.870;37.336;2023-02-23T17:32:31;-2.73;60.54
76104;HTU21D;64831;44.870;37.336;2023-02-23T17:34:57;-2.76;60.80
76104;HTU21D;64831;44.870;37.336;2023-02-23T17:37:23;-2.77;60.64
76104;HTU21D;64831;44.870;37.336;2023-02-23T17:39:49;-2.79;60.68
76104;HTU21D;64831;44.870;37.336;2023-02-23T17:42:16;-2.80;60.89
76104;HTU21D;64831;44.870;37.336;2023-02-23T17:44:42;-2.82;60.98
76104;HTU21D;64831;44.870;37.336;2023-02-23T17:47:11;-2.87;61.05
76104;HTU21D;64831;44.870;37.336;2023-02-23T17:49:37;-2.86;60.41
76104;HTU21D;64831;44.870;37.336;2023-02-23T17:52:03;-2.89;61.02
76104;HTU21D;64831;44.870;37.336;2023-02-23T17:54:29;-2.94;61.64